Time;durP1;ratioP1;P1;durP2;ratioP2;P2;SDS_P1;SDS_P2;PMS_P1;PMS_P2;Temp;Humidity;BMP_temperature;BMP_pressure;BME280_temperature;BME280_humidity;BME280_pressure;Samples;Min_cycle;Max_cycle;Signal;HPM_P1;HPM_P2
2022/06/12 00:01:13;;;;;;;9.38;6.15;;;;;;;16.10;78.91;95680.71;1786952;80;21075;-64
2022/06/12 00:03:42;;;;;;;10.23;5.05;;;;;;;16.11;79.40;95681.14;1787087;80;20964;-64
2022/06/12 00:06:10;;;;;;;8.78;5.97;;;;;;;16.12;78.64;95686.84;1786983;80;21042;-64
2022/06/12 00:08:39;;;;;;;10.18;5.67;;;;;;;16.09;78.48;95686.97;1787183;80;21034;-64
2022/06/12 00:11:09;;;;;;;8.43;5.73;;;;;;;16.09;78.29;95692.30;1787120;80;21046;-64
2022/06/12 00:13:41;;;;;;;7.30;5.70;;;;;;;16.07;77.84;95690.16;1787063;80;20990;-64
2022/06/12 00:16:11;;;;;;;8.67;5.30;;;;;;;16.05;77.87;95689.34;1787411;80;21485;-65
2022/06/12 00:18:38;;;;;;;7.25;5.60;;;;;;;15.98;80.43;95690.92;1787135;80;21550;-64
2022/06/12 00:21:11;;;;;;;11.12;6.78;;;;;;;15.97;79.25;95684.31;1786497;80;21050;-64
2022/06/12 00:23:45;;;;;;;6.00;5.35;;;;;;;15.94;79.60;95685.30;1787208;80;20983;-64
2022/06/12 00:26:16;;;;;;;8.78;5.55;;;;;;;15.90;80.28;95685.03;1787048;80;21034;-64
2022/06/12 00:28:43;;;;;;;8.65;6.22;;;;;;;15.83;79.64;95685.32;1787110;80;21011;-64
2022/06/12 00:31:09;;;;;;;7.20;6.00;;;;;;;15.74;79.91;95690.04;1787112;80;20999;-64
2022/06/12 00:33:36;;;;;;;7.10;5.80;;;;;;;15.75;79.52;95689.13;1787229;80;20947;-64
2022/06/12 00:36:04;;;;;;;6.67;5.40;;;;;;;15.76;79.06;95688.66;1786855;80;21032;-64
2022/06/12 00:38:31;;;;;;;7.62;5.70;;;;;;;15.69;78.59;95677.81;1787113;80;21031;-64
2022/06/12 00:40:59;;;;;;;11.57;5.85;;;;;;;15.69;78.59;95677.81;1787004;80;21006;-64
2022/06/12 00:43:29;;;;;;;6.87;5.83;;;;;;;15.72;79.12;95688.36;1786932;80;21019;-64
2022/06/12 00:45:59;;;;;;;8.15;6.22;;;;;;;15.61;78.76;95679.89;1786696;80;21524;-64
2022/06/12 00:48:33;;;;;;;9.15;6.40;;;;;;;15.56;79.45;95682.72;1787024;80;21050;-64
2022/06/12 00:51:11;;;;;;;7.75;6.35;;;;;;;15.61;79.87;95679.89;1786879;80;20987;-64
2022/06/12 00:53:46;;;;;;;10.40;6.30;;;;;;;15.56;79.73;95681.39;1786830;80;21054;-64
2022/06/12 00:56:18;;;;;;;12.03;6.53;;;;;;;15.53;80.30;95676.19;1786052;80;20995;-64
2022/06/12 00:58:50;;;;;;;8.35;6.20;;;;;;;15.53;81.39;95682.37;1787264;80;21015;-64
2022/06/12 01:01:31;;;;;;;9.40;5.60;;;;;;;15.56;80.55;95679.59;1786567;80;21031;-64
2022/06/12 01:06:46;;;;;;;7.42;5.87;;;;;;;15.48;80.41;95671.03;1787168;80;21042;-64
2022/06/12 01:09:28;;;;;;;8.63;5.65;;;;;;;15.50;81.12;95685.62;1787167;80;20979;-64
2022/06/12 01:11:57;;;;;;;5.53;4.97;;;;;;;15.50;81.08;95678.50;1787114;80;21027;-64
2022/06/12 01:14:29;;;;;;;7.58;5.85;;;;;;;15.40;81.81;95670.92;1787225;80;21465;-64
2022/06/12 01:16:57;;;;;;;8.47;5.47;;;;;;;15.40;81.81;95670.92;1787529;80;21015;-64
2022/06/12 01:19:38;;;;;;;7.00;5.90;;;;;;;15.42;81.50;95669.05;1787229;80;21010;-65
2022/06/12 01:22:28;;;;;;;8.68;6.17;;;;;;;15.44;81.39;95672.05;1786300;80;21054;-64
2022/06/12 01:25:06;;;;;;;8.85;5.53;;;;;;;15.41;81.33;95670.84;1787331;80;21011;-64
2022/06/12 01:27:41;;;;;;;12.35;6.10;;;;;;;15.41;81.33;95670.84;1786924;80;21099;-64
2022/06/12 01:30:22;;;;;;;9.53;6.35;;;;;;;15.38;81.28;95674.09;1786870;80;20992;-64
2022/06/12 01:33:00;;;;;;;9.98;6.10;;;;;;;15.41;81.05;95670.84;1787148;80;21516;-64
2022/06/12 01:35:56;;;;;;;7.62;6.17;;;;;;;15.30;81.24;95674.37;1786988;80;20991;-64
2022/06/12 01:38:34;;;;;;;8.68;6.20;;;;;;;15.30;81.24;95674.37;1787471;80;21011;-64
2022/06/12 01:41:11;;;;;;;8.23;5.58;;;;;;;15.19;81.28;95676.52;1785428;80;20991;-64
2022/06/12 01:43:52;;;;;;;9.35;6.22;;;;;;;15.14;80.86;95678.90;1773491;80;21005;-65
2022/06/12 01:46:24;;;;;;;9.10;6.08;;;;;;;15.18;81.28;95678.31;1787036;80;21030;-64
2022/06/12 01:49:15;;;;;;;7.95;5.87;;;;;;;15.17;80.83;95672.61;1787368;80;21043;-64
2022/06/12 01:52:05;;;;;;;7.62;6.25;;;;;;;15.10;80.18;95673.74;1787191;80;21023;-64
2022/06/12 01:54:52;;;;;;;9.68;5.40;;;;;;;14.99;80.39;95685.19;1781016;80;21022;-65
2022/06/12 01:57:50;;;;;;;8.60;5.70;;;;;;;14.99;80.39;95685.19;1725205;80;20980;-64
2022/06/12 02:00:21;;;;;;;7.70;5.75;;;;;;;14.79;81.17;95673.91;1787238;80;21042;-64
2022/06/12 02:03:01;;;;;;;7.83;6.10;;;;;;;14.71;80.97;95677.69;1786090;80;21011;-65
2022/06/12 02:06:01;;;;;;;9.73;6.60;;;;;;;14.68;80.77;95678.27;1787265;80;20989;-64
2022/06/12 02:08:41;;;;;;;7.00;6.22;;;;;;;14.65;81.28;95677.91;1787198;80;20996;-64
2022/06/12 02:14:08;;;;;;;9.00;6.60;;;;;;;14.55;81.82;95672.95;1787004;80;21547;-64
2022/06/12 02:16:39;;;;;;;8.90;7.25;;;;;;;14.47;81.82;95668.73;1787185;80;20962;-64
2022/06/12 02:19:11;;;;;;;7.62;6.47;;;;;;;14.45;82.37;95677.19;1787079;80;21011;-64
2022/06/12 02:21:48;;;;;;;19.62;6.37;;;;;;;14.48;82.36;95687.70;1784022;80;21003;-64
2022/06/12 02:24:25;;;;;;;10.80;6.17;;;;;;;14.41;81.48;95683.97;1786945;80;21516;-64
2022/06/12 02:27:10;;;;;;;8.78;6.45;;;;;;;14.41;82.15;95671.59;1787447;80;21011;-65
2022/06/12 02:29:45;;;;;;;11.70;7.75;;;;;;;14.42;81.44;95669.80;1787245;80;21054;-64
2022/06/12 02:32:50;;;;;;;10.43;7.22;;;;;;;14.40;81.66;95665.86;1786826;80;21546;-64
2022/06/12 02:35:22;;;;;;;9.70;6.72;;;;;;;14.36;82.68;95673.96;1787146;80;20999;-64
2022/06/12 02:37:53;;;;;;;10.58;7.50;;;;;;;14.28;82.96;95683.50;1787105;80;20991;-64
2022/06/12 02:40:26;;;;;;;9.28;6.67;;;;;;;14.31;83.11;95687.37;1787197;80;20999;-64
2022/06/12 02:42:55;;;;;;;11.93;8.20;;;;;;;14.24;83.06;95689.84;1787045;80;21007;-64
2022/06/12 02:45:38;;;;;;;8.58;6.30;;;;;;;14.17;83.16;95688.29;1787381;80;21003;-64
2022/06/12 02:48:07;;;;;;;7.85;6.85;;;;;;;14.15;83.46;95692.77;1787063;80;21007;-64
2022/06/12 02:50:42;;;;;;;7.75;6.78;;;;;;;14.12;83.66;95692.41;1787149;80;21042;-64
2022/06/12 02:53:23;;;;;;;9.40;6.40;;;;;;;14.10;84.25;95686.73;1787087;80;21485;-64
2022/06/12 02:55:57;;;;;;;7.20;6.50;;;;;;;14.10;83.67;95688.92;1790947;80;21018;-64
2022/06/12 02:58:38;;;;;;;8.10;6.35;;;;;;;14.05;84.02;95689.53;1787315;80;20971;-64
2022/06/12 03:01:18;;;;;;;7.90;7.10;;;;;;;14.05;83.87;95690.39;1795291;80;20963;-64
2022/06/12 03:04:14;;;;;;;7.30;6.58;;;;;;;14.05;83.78;95698.34;1795379;80;20974;-64
2022/06/12 03:06:41;;;;;;;9.48;6.60;;;;;;;14.09;83.46;95695.16;1795346;80;20996;-64
2022/06/12 03:09:08;;;;;;;9.58;7.25;;;;;;;14.10;83.27;95699.53;1795417;80;21083;-64
2022/06/12 03:11:40;;;;;;;7.62;6.83;;;;;;;14.09;82.86;95699.14;1795222;80;21014;-64
2022/06/12 03:14:12;;;;;;;10.03;7.30;;;;;;;14.17;83.12;95701.56;1795591;80;21026;-64
2022/06/12 03:16:43;;;;;;;8.48;6.03;;;;;;;14.13;82.65;95697.25;1764500;80;21120;-64
2022/06/12 03:19:17;;;;;;;8.83;6.22;;;;;;;14.10;82.78;95698.21;1795512;80;21014;-64
2022/06/12 03:22:16;;;;;;;7.47;6.42;;;;;;;14.15;82.76;95701.59;1795167;80;21539;-64
2022/06/12 03:25:20;;;;;;;8.95;6.87;;;;;;;14.14;83.98;95706.50;1795541;80;21029;-64
2022/06/12 03:28:07;;;;;;;8.00;6.80;;;;;;;14.23;84.18;95704.00;1795364;80;20995;-64
2022/06/12 03:30:41;;;;;;;7.78;6.70;;;;;;;14.40;84.26;95687.56;1795551;80;21007;-64
2022/06/12 03:33:25;;;;;;;12.30;7.47;;;;;;;14.51;83.83;95689.39;1778093;80;21011;-64
2022/06/12 03:36:18;;;;;;;9.23;6.87;;;;;;;14.56;83.80;95698.11;1795834;80;21050;-64
2022/06/12 03:39:20;;;;;;;7.47;6.60;;;;;;;14.61;83.67;95707.26;1772879;80;21048;-64
2022/06/12 03:41:58;;;;;;;8.75;6.30;;;;;;;14.68;83.43;95713.65;1795936;80;20967;-64
2022/06/12 03:45:02;;;;;;;8.55;6.45;;;;;;;14.78;82.67;95715.55;1794877;80;21014;-64
2022/06/12 03:47:52;;;;;;;9.78;7.65;;;;;;;14.73;83.07;95725.45;1790775;80;20971;-64
2022/06/12 03:50:46;;;;;;;7.90;6.10;;;;;;;14.73;82.60;95724.59;1795497;80;20990;-64
2022/06/12 03:53:31;;;;;;;10.08;6.72;;;;;;;14.75;82.50;95720.10;1793962;80;21104;-64
2022/06/12 03:59:03;;;;;;;7.92;6.47;;;;;;;14.98;83.36;95721.52;1787189;80;21039;-64
2022/06/12 04:01:32;;;;;;;7.60;6.58;;;;;;;15.05;83.18;95724.38;1786573;80;21023;-64
2022/06/12 04:04:01;;;;;;;11.45;7.50;;;;;;;15.15;83.15;95724.95;1787109;80;21019;-64
2022/06/12 04:06:31;;;;;;;9.30;7.28;;;;;;;15.37;82.50;95725.04;1786922;80;21070;-64
2022/06/12 04:09:04;;;;;;;9.98;7.47;;;;;;;15.37;82.50;95725.04;1787246;80;21034;-64
2022/06/12 04:11:36;;;;;;;8.00;7.08;;;;;;;15.44;82.23;95728.36;1787337;80;21055;-64
2022/06/12 04:14:07;;;;;;;8.55;6.92;;;;;;;15.48;82.17;95734.85;1787057;80;21018;-64
2022/06/12 04:16:46;;;;;;;8.80;6.78;;;;;;;15.54;81.75;95731.09;1787156;80;21003;-64
2022/06/12 04:19:18;;;;;;;9.33;7.12;;;;;;;15.65;81.98;95728.04;1787012;80;21023;-64
2022/06/12 04:21:59;;;;;;;8.03;7.13;;;;;;;15.70;81.52;95723.45;1787250;80;20959;-64
2022/06/12 04:24:46;;;;;;;9.25;7.70;;;;;;;15.74;81.08;95731.74;1787002;80;21023;-64
2022/06/12 04:27:30;;;;;;;9.40;7.58;;;;;;;15.65;80.96;95730.27;1786997;80;21039;-65
2022/06/12 04:30:05;;;;;;;;;;;;;;;15.68;81.23;95728.81;1789754;80;21015;-64
2022/06/12 04:32:32;;;;;;;10.90;7.37;;;;;;;15.83;81.79;95733.22;1787669;80;20128;-64
2022/06/12 04:34:59;;;;;;;8.00;7.00;;;;;;;15.99;81.33;95725.91;1786635;80;21025;-64
2022/06/12 04:37:30;;;;;;;8.40;7.50;;;;;;;16.04;80.46;95726.21;1787172;80;21479;-64
2022/06/12 04:40:01;;;;;;;9.18;7.30;;;;;;;16.05;80.18;95727.50;1787300;80;21045;-64
2022/06/12 04:42:31;;;;;;;10.60;7.15;;;;;;;16.14;80.34;95724.46;1787041;80;21021;-64
2022/06/12 04:45:00;;;;;;;12.00;7.20;;;;;;;16.22;79.37;95727.69;1787240;80;20957;-64
2022/06/12 04:47:30;;;;;;;7.55;6.72;;;;;;;16.33;80.24;95722.41;1787126;80;21030;-64
2022/06/12 04:49:57;;;;;;;9.88;6.15;;;;;;;16.51;80.00;95724.37;1787161;80;20985;-64
2022/06/12 04:52:26;;;;;;;9.43;6.92;;;;;;;16.58;79.01;95716.54;1787122;80;21471;-65
2022/06/12 04:54:54;;;;;;;9.20;6.65;;;;;;;16.66;78.73;95710.90;1787122;80;21511;-64
2022/06/12 04:57:20;;;;;;;9.85;6.60;;;;;;;16.78;78.78;95713.09;1787260;80;21021;-64
2022/06/12 04:59:48;;;;;;;10.63;7.03;;;;;;;16.87;78.55;95718.03;1787252;80;21006;-64
2022/06/12 05:02:15;;;;;;;9.73;8.13;;;;;;;16.87;78.55;95718.03;1786985;80;21439;-64
2022/06/12 05:04:42;;;;;;;12.40;8.23;;;;;;;16.87;78.74;95722.50;1787283;80;20993;-64
2022/06/12 05:07:13;;;;;;;12.70;8.13;;;;;;;16.90;78.85;95727.70;1786730;80;21131;-64
2022/06/12 05:09:41;;;;;;;9.85;7.80;;;;;;;16.93;78.17;95727.56;1787158;80;20993;-64
2022/06/12 05:12:12;;;;;;;8.38;7.47;;;;;;;17.00;78.27;95727.72;1787127;80;21025;-64
2022/06/12 05:14:39;;;;;;;8.00;6.75;;;;;;;17.16;78.48;95721.30;1787176;80;21531;-64
2022/06/12 05:17:11;;;;;;;7.67;6.85;;;;;;;17.26;77.70;95725.74;1786749;80;21018;-64
2022/06/12 05:19:41;;;;;;;8.50;6.70;;;;;;;17.36;77.90;95719.11;1787332;80;20990;-64
2022/06/12 05:22:10;;;;;;;7.03;6.10;;;;;;;17.54;77.49;95714.77;1787100;80;21056;-64
2022/06/12 05:24:38;;;;;;;7.72;6.90;;;;;;;17.67;76.49;95713.28;1787034;80;20946;-64
2022/06/12 05:27:09;;;;;;;7.42;6.08;;;;;;;17.81;76.20;95718.02;1787132;80;21081;-64
2022/06/12 05:29:39;;;;;;;6.72;6.00;;;;;;;17.96;75.84;95720.47;1780238;80;21032;-64
2022/06/12 05:32:08;;;;;;;6.58;5.72;;;;;;;18.04;75.08;95718.78;1787162;80;21460;-65
2022/06/12 05:34:34;;;;;;;8.15;5.85;;;;;;;18.10;74.61;95723.85;1787133;80;21487;-64
2022/06/12 05:37:03;;;;;;;6.70;6.03;;;;;;;18.12;74.11;95723.32;1786678;80;21771;-64
2022/06/12 05:39:30;;;;;;;7.10;6.25;;;;;;;18.15;73.76;95726.70;1787439;80;21001;-64
2022/06/12 05:41:56;;;;;;;7.12;6.42;;;;;;;18.23;73.72;95733.02;1787087;80;20989;-64
2022/06/12 05:44:23;;;;;;;9.73;6.53;;;;;;;18.31;73.26;95724.17;1787001;80;20990;-64
2022/06/12 05:46:50;;;;;;;6.78;6.08;;;;;;;18.35;72.53;95726.25;1787306;80;21001;-64
2022/06/12 05:49:17;;;;;;;7.75;6.33;;;;;;;18.38;72.20;95728.77;1787499;80;20967;-64
2022/06/12 05:51:44;;;;;;;7.60;6.87;;;;;;;18.39;72.22;95729.16;1787149;80;20998;-64
2022/06/12 05:54:11;;;;;;;9.18;6.65;;;;;;;18.48;72.58;95730.06;1787107;80;20970;-64
2022/06/12 05:56:39;;;;;;;10.45;6.45;;;;;;;18.54;72.06;95732.91;1793164;80;21518;-64
2022/06/12 05:59:06;;;;;;;7.35;6.65;;;;;;;18.62;72.34;95734.73;1800893;80;20997;-64
2022/06/12 06:01:33;;;;;;;12.13;7.08;;;;;;;18.67;71.64;95730.51;1800902;80;21029;-64
2022/06/12 06:04:00;;;;;;;7.37;6.25;;;;;;;18.69;71.45;95736.17;1801413;80;20969;-65
2022/06/12 06:06:30;;;;;;;7.12;6.42;;;;;;;18.75;71.53;95737.70;1800892;80;20993;-65
2022/06/12 06:08:59;;;;;;;9.63;7.30;;;;;;;18.85;71.98;95742.14;1801094;80;21040;-64
2022/06/12 06:11:27;;;;;;;7.53;6.45;;;;;;;18.99;72.12;95736.52;1801040;80;21051;-64
2022/06/12 06:13:53;;;;;;;7.53;6.33;;;;;;;19.13;72.11;95738.52;1801119;80;20960;-65
2022/06/12 06:16:21;;;;;;;7.33;6.15;;;;;;;19.24;71.72;95725.94;1801121;80;21013;-64
2022/06/12 06:18:47;;;;;;;8.08;6.60;;;;;;;19.38;71.60;95733.28;1801311;80;20977;-64
2022/06/12 06:21:15;;;;;;;9.58;6.20;;;;;;;19.49;71.60;95736.25;1801247;80;21017;-65
2022/06/12 06:23:43;;;;;;;7.30;6.55;;;;;;;19.61;70.93;95739.64;1801030;80;21546;-64
2022/06/12 06:26:10;;;;;;;9.78;6.30;;;;;;;19.69;69.23;95733.92;1800985;80;21350;-65
2022/06/12 06:28:39;;;;;;;7.10;6.15;;;;;;;19.71;68.62;95738.73;1801158;80;21487;-65
2022/06/12 06:31:06;;;;;;;8.25;6.00;;;;;;;19.79;69.35;95741.00;1801140;80;21030;-64
2022/06/12 06:33:33;;;;;;;6.87;6.10;;;;;;;19.86;68.55;95735.72;1801085;80;20990;-65
2022/06/12 06:36:01;;;;;;;6.40;5.72;;;;;;;19.95;68.08;95734.34;1801106;80;21005;-65
2022/06/12 06:38:28;;;;;;;6.42;5.67;;;;;;;20.00;67.66;95733.63;1801149;80;20977;-65
2022/06/12 06:40:54;;;;;;;6.08;5.47;;;;;;;20.05;67.28;95735.11;1801129;80;21032;-65
2022/06/12 06:43:21;;;;;;;7.83;5.58;;;;;;;20.19;67.38;95745.09;1801364;80;21085;-65
2022/06/12 06:48:33;;;;;;;6.05;5.37;;;;;;;20.41;67.40;95738.55;1800913;80;21001;-65
2022/06/12 06:51:00;;;;;;;6.00;5.28;;;;;;;20.52;66.84;95739.69;1800960;80;21040;-65
2022/06/12 06:53:26;;;;;;;7.83;5.37;;;;;;;20.63;66.26;95736.92;1801121;80;20969;-65
2022/06/12 06:55:53;;;;;;;6.95;5.55;;;;;;;20.73;67.11;95729.60;1800764;80;21071;-65
2022/06/12 06:58:25;;;;;;;5.50;5.10;;;;;;;20.86;66.87;95735.61;1800997;80;21061;-65
2022/06/12 07:00:53;;;;;;;5.80;5.30;;;;;;;20.92;65.55;95735.28;1801241;80;20985;-65
2022/06/12 07:03:21;;;;;;;6.08;5.28;;;;;;;20.96;64.93;95736.37;1800906;80;21458;-65
2022/06/12 07:05:49;;;;;;;8.05;5.12;;;;;;;21.05;65.46;95740.80;1801025;80;21004;-65
2022/06/12 07:08:17;;;;;;;5.78;5.20;;;;;;;21.15;65.79;95736.63;1800367;80;21064;-65
2022/06/12 07:10:46;;;;;;;8.68;4.62;;;;;;;21.31;65.70;95738.80;1801163;80;21462;-65
2022/06/12 07:13:13;;;;;;;6.65;4.80;;;;;;;21.38;63.53;95737.52;1801014;80;21451;-65
2022/06/12 07:15:41;;;;;;;5.10;4.60;;;;;;;21.41;63.79;95738.30;1800769;80;21017;-65
2022/06/12 07:18:09;;;;;;;5.17;4.65;;;;;;;21.50;63.83;95739.11;1801190;80;21000;-65
2022/06/12 07:20:41;;;;;;;6.15;4.67;;;;;;;21.63;63.51;95736.55;1801012;80;21000;-65
2022/06/12 07:23:11;;;;;;;6.60;4.58;;;;;;;21.79;62.47;95741.36;1800962;80;21001;-65
2022/06/12 07:25:43;;;;;;;4.87;4.47;;;;;;;21.71;61.65;95744.52;1800993;80;21021;-65
2022/06/12 07:28:11;;;;;;;4.37;4.03;;;;;;;21.56;61.65;95748.98;1801423;80;21024;-65
2022/06/12 07:30:39;;;;;;;5.08;4.17;;;;;;;21.52;62.45;95752.82;1800882;80;21013;-65
2022/06/12 07:33:08;;;;;;;6.10;4.87;;;;;;;21.59;62.07;95751.47;1800967;80;21047;-65
2022/06/12 07:35:36;;;;;;;4.92;3.83;;;;;;;21.77;62.39;95749.53;1801070;80;21016;-65
2022/06/12 07:38:03;;;;;;;4.65;3.92;;;;;;;21.96;62.43;95754.63;1772005;80;21032;-65
2022/06/12 07:40:36;;;;;;;4.70;4.30;;;;;;;22.18;60.84;95743.92;1800956;80;21017;-65
2022/06/12 07:43:03;;;;;;;6.20;4.55;;;;;;;22.36;61.21;95750.00;1800045;80;21057;-65
2022/06/12 07:45:30;;;;;;;9.35;5.85;;;;;;;22.48;60.74;95747.89;1801000;80;21467;-65
2022/06/12 07:47:58;;;;;;;4.97;4.58;;;;;;;22.70;60.58;95751.39;1801330;80;20945;-65
2022/06/12 07:50:24;;;;;;;6.45;4.40;;;;;;;22.66;57.78;95742.67;1800775;80;20973;-65
2022/06/12 07:52:51;;;;;;;4.35;3.77;;;;;;;22.43;57.54;95747.31;1801183;80;21064;-64
2022/06/12 07:55:20;;;;;;;4.75;3.90;;;;;;;22.44;58.38;95747.20;1800972;80;20985;-65
2022/06/12 07:57:47;;;;;;;6.03;4.70;;;;;;;22.58;58.37;95746.34;1800832;80;20985;-65
2022/06/12 08:00:16;;;;;;;4.78;4.30;;;;;;;22.76;59.27;95750.16;1801053;80;21025;-65
2022/06/12 08:02:45;;;;;;;4.15;3.75;;;;;;;22.68;58.32;95743.45;1801112;80;21549;-65
2022/06/12 08:05:14;;;;;;;4.40;4.00;;;;;;;22.52;57.89;95756.13;1800879;80;21005;-65
2022/06/12 08:07:41;;;;;;;4.60;3.92;;;;;;;22.59;58.35;95756.61;1801235;80;21013;-65
2022/06/12 08:10:11;;;;;;;6.67;4.03;;;;;;;22.45;57.15;95753.44;1801149;80;21039;-65
2022/06/12 08:12:41;;;;;;;6.58;3.90;;;;;;;22.51;58.74;95752.20;1801078;80;21016;-65
2022/06/12 08:15:12;;;;;;;5.70;3.90;;;;;;;22.86;59.47;95756.19;1801229;80;21052;-65
2022/06/12 08:17:39;;;;;;;4.28;3.87;;;;;;;23.23;57.41;95752.94;1801295;80;21009;-65
2022/06/12 08:20:28;;;;;;;4.00;3.60;;;;;;;23.21;56.27;95754.40;1801037;80;21005;-65
2022/06/12 08:23:06;;;;;;;4.15;3.60;;;;;;;23.26;55.40;95757.65;1801129;80;20993;-65
2022/06/12 08:25:36;;;;;;;4.97;3.90;;;;;;;23.46;57.54;95750.05;1801180;80;21469;-65
2022/06/12 08:28:05;;;;;;;4.25;3.85;;;;;;;23.72;57.01;95749.19;1801245;80;21029;-65
2022/06/12 08:30:32;;;;;;;4.25;3.95;;;;;;;23.81;55.76;95752.22;1801289;80;20941;-65
2022/06/12 08:32:59;;;;;;;4.60;3.70;;;;;;;23.93;55.99;95754.07;1801112;80;21004;-64
2022/06/12 08:35:30;;;;;;;3.70;3.40;;;;;;;24.16;56.36;95752.47;1801170;80;21032;-65
2022/06/12 08:37:58;;;;;;;6.55;3.70;;;;;;;24.25;54.52;95756.37;1801177;80;20977;-65
2022/06/12 08:40:39;;;;;;;4.30;4.00;;;;;;;24.29;54.78;95755.16;1801166;80;21048;-65
2022/06/12 08:43:34;;;;;;;4.37;4.00;;;;;;;24.48;55.30;95755.63;1801239;80;20998;-65
2022/06/12 08:46:08;;;;;;;7.25;3.65;;;;;;;24.55;54.46;95760.11;1801451;80;20981;-65
2022/06/12 08:48:46;;;;;;;4.17;3.50;;;;;;;24.51;50.79;95761.28;1801244;80;21475;-65
2022/06/12 08:51:21;;;;;;;3.98;3.65;;;;;;;24.34;51.47;95757.05;1801379;80;21015;-65
2022/06/12 08:54:09;;;;;;;5.22;4.03;;;;;;;24.55;53.92;95756.91;1800884;80;21005;-65
2022/06/12 08:56:47;;;;;;;4.33;3.50;;;;;;;24.64;50.45;95757.22;1772412;80;20999;-65
2022/06/12 08:59:22;;;;;;;4.47;3.92;;;;;;;24.69;52.09;95755.05;1800855;80;21108;-65
2022/06/12 09:01:48;;;;;;;4.60;3.80;;;;;;;24.94;52.31;95746.04;1799889;80;20985;-65
2022/06/12 09:04:20;;;;;;;4.33;3.92;;;;;;;25.12;51.08;95753.27;1801205;80;21051;-65
2022/06/12 09:06:57;;;;;;;4.55;3.83;;;;;;;24.96;51.62;95752.19;1801279;80;20973;-65
2022/06/12 09:09:47;;;;;;;7.70;3.70;;;;;;;24.68;50.67;95754.69;1800925;80;21589;-65
2022/06/12 09:12:25;;;;;;;4.22;3.47;;;;;;;24.58;52.41;95756.69;1801253;80;21468;-65
2022/06/12 09:15:06;;;;;;;3.98;3.60;;;;;;;24.48;52.66;95757.47;1801112;80;21031;-65
2022/06/12 09:18:07;;;;;;;5.15;4.00;;;;;;;24.31;53.25;95750.53;1781675;80;21061;-65
2022/06/12 09:20:52;;;;;;;4.87;3.85;;;;;;;24.16;53.73;95758.72;1801114;80;21016;-65
2022/06/12 09:23:33;;;;;;;4.22;3.75;;;;;;;24.31;53.10;95751.88;1801181;80;21439;-65
2022/06/12 09:26:31;;;;;;;4.03;3.70;;;;;;;24.47;52.28;95756.61;1801272;80;21016;-65
2022/06/12 09:29:03;;;;;;;4.37;3.98;;;;;;;24.44;52.86;95751.87;1800315;80;21069;-65
2022/06/12 09:31:44;;;;;;;4.37;3.98;;;;;;;24.30;53.48;95754.21;1801314;80;21051;-65
2022/06/12 09:34:50;;;;;;;4.20;3.80;;;;;;;24.31;52.48;95748.69;1801439;80;21049;-65
2022/06/12 09:41:08;;;;;;;4.83;3.85;;;;;;;24.56;52.13;95753.23;1769584;81;20982;-65
2022/06/12 09:44:09;;;;;;;6.17;3.98;;;;;;;24.28;52.80;95751.61;1801106;80;21478;-65
2022/06/12 09:47:11;;;;;;;5.20;4.30;;;;;;;24.11;53.17;95756.83;1801213;80;21448;-65
2022/06/12 09:50:08;;;;;;;4.25;3.95;;;;;;;24.02;53.84;95753.94;1800038;80;21567;-65
2022/06/12 09:52:58;;;;;;;5.28;3.77;;;;;;;24.01;53.99;95751.70;1772398;80;21089;-65
2022/06/12 09:55:47;;;;;;;3.80;3.52;;;;;;;24.03;54.23;95749.77;1800714;80;21484;-65
2022/06/12 09:58:35;;;;;;;4.33;3.92;;;;;;;24.03;53.45;95747.07;1792026;80;21039;-65
2022/06/12 10:01:25;;;;;;;4.22;3.85;;;;;;;23.92;53.11;95746.97;1787321;80;21027;-65
2022/06/12 10:04:09;;;;;;;4.25;3.90;;;;;;;23.90;54.04;95750.25;1787219;80;20980;-65
2022/06/12 10:07:05;;;;;;;4.22;3.77;;;;;;;24.00;54.48;95743.25;1787240;80;21042;-65
2022/06/12 10:09:50;;;;;;;4.30;4.00;;;;;;;24.15;55.50;95748.91;1786975;80;21091;-65
2022/06/12 10:12:25;;;;;;;4.30;3.90;;;;;;;24.47;55.16;95757.95;1787075;80;21042;-65
2022/06/12 10:14:59;;;;;;;4.00;3.70;;;;;;;24.94;55.01;95739.29;1786974;80;21070;-65
2022/06/12 10:17:35;;;;;;;4.12;3.77;;;;;;;25.41;54.21;95738.98;1786999;80;20979;-65
2022/06/12 10:20:17;;;;;;;4.25;3.80;;;;;;;25.60;52.21;95733.92;1786387;80;20967;-65
2022/06/12 10:22:49;;;;;;;4.62;4.28;;;;;;;25.37;51.89;95734.78;1787299;80;21062;-65
2022/06/12 10:25:36;;;;;;;3.98;3.67;;;;;;;25.58;53.32;95727.77;1787145;80;21481;-65
2022/06/12 10:28:17;;;;;;;4.25;3.85;;;;;;;25.92;52.15;95722.98;1787441;80;21007;-65
2022/06/12 10:31:07;;;;;;;3.90;3.60;;;;;;;26.02;50.69;95724.84;1786896;80;21157;-65
2022/06/12 10:33:57;;;;;;;5.17;3.80;;;;;;;26.20;50.29;95727.95;1702640;84;21063;-65
2022/06/12 10:36:28;;;;;;;5.92;3.80;;;;;;;26.45;51.76;95724.66;1775040;80;21007;-65
2022/06/12 10:39:13;;;;;;;4.30;4.00;;;;;;;26.65;50.90;95729.36;1786917;80;21002;-64
2022/06/12 10:41:54;;;;;;;5.25;3.90;;;;;;;26.96;50.48;95724.16;1787009;80;21062;-65
2022/06/12 10:44:36;;;;;;;3.77;3.42;;;;;;;27.27;48.96;95717.63;1787192;80;21477;-65
2022/06/12 10:47:25;;;;;;;3.90;3.60;;;;;;;27.55;48.92;95722.94;1787131;80;21011;-65
2022/06/12 10:50:25;;;;;;;4.58;3.77;;;;;;;27.35;44.16;95707.00;1786415;80;21075;-65
2022/06/12 10:53:12;;;;;;;5.80;3.72;;;;;;;27.56;46.54;95710.59;1762099;80;21023;-65
2022/06/12 10:56:03;;;;;;;3.47;3.17;;;;;;;27.75;46.85;95710.41;1786948;80;21023;-65
2022/06/12 10:59:12;;;;;;;3.67;3.37;;;;;;;27.95;45.64;95701.95;1787008;80;21090;-65
2022/06/12 11:02:13;;;;;;;3.20;3.00;;;;;;;27.99;45.46;95712.89;1786892;80;21015;-65
2022/06/12 11:04:57;;;;;;;3.65;3.35;;;;;;;28.12;44.61;95710.82;1787215;80;21043;-65
2022/06/12 11:07:47;;;;;;;3.52;3.22;;;;;;;28.22;43.59;95706.34;1786788;80;21070;-65
2022/06/12 11:10:39;;;;;;;4.10;3.35;;;;;;;27.73;42.96;95708.32;1787151;80;21067;-65
2022/06/12 11:13:41;;;;;;;3.70;3.40;;;;;;;27.36;43.58;95704.14;1786973;80;20972;-65
2022/06/12 11:16:28;;;;;;;3.50;3.30;;;;;;;27.00;44.52;95705.33;1787008;80;21165;-65
2022/06/12 11:19:23;;;;;;;4.55;3.58;;;;;;;27.16;45.35;95693.58;1786390;80;21004;-65
2022/06/12 11:22:16;;;;;;;3.80;3.50;;;;;;;27.11;44.74;95694.45;1787091;80;21003;-65
2022/06/12 11:25:11;;;;;;;;;;;;;;;26.92;45.34;95690.22;1674895;85;21059;-65
2022/06/12 11:28:10;;;;;;;6.35;3.47;;;;;;;26.69;46.08;95692.10;1780264;80;20089;-65
2022/06/12 11:30:51;;;;;;;4.35;3.80;;;;;;;26.87;46.99;95686.53;1787253;80;21465;-65
2022/06/12 11:33:47;;;;;;;6.95;3.30;;;;;;;27.17;46.84;95685.84;1787227;80;21063;-65
2022/06/12 11:36:55;;;;;;;3.70;3.40;;;;;;;26.80;45.75;95687.16;1786961;80;21520;-65
2022/06/12 11:39:45;;;;;;;3.70;3.40;;;;;;;26.26;46.92;95686.91;1786825;80;21011;-65
2022/06/12 11:43:00;;;;;;;4.60;3.65;;;;;;;26.06;48.63;95679.52;1786573;80;21046;-65
2022/06/12 11:46:00;;;;;;;4.53;4.12;;;;;;;26.32;49.17;95678.30;1706209;84;20999;-65
2022/06/12 11:48:41;;;;;;;4.83;4.08;;;;;;;26.85;46.76;95664.63;1751999;82;20985;-65
2022/06/12 11:51:43;;;;;;;5.15;3.90;;;;;;;26.62;46.39;95662.45;1765531;78;21517;-65
2022/06/12 11:54:53;;;;;;;4.65;3.42;;;;;;;26.36;47.54;95668.11;1831460;78;21023;-65
2022/06/12 11:57:34;;;;;;;5.55;4.22;;;;;;;26.00;48.50;95670.52;1831578;78;20984;-65
2022/06/12 12:00:09;;;;;;;4.30;4.00;;;;;;;25.77;49.82;95673.15;1834367;78;21515;-65
2022/06/12 12:02:54;;;;;;;4.40;3.80;;;;;;;25.72;49.86;95667.73;1835138;78;21020;-65
2022/06/12 12:06:04;;;;;;;4.90;3.80;;;;;;;25.90;49.97;95663.63;1833425;78;21007;-65
2022/06/12 12:08:48;;;;;;;3.87;3.58;;;;;;;26.17;49.20;95661.08;1835156;78;21007;-65
2022/06/12 12:11:26;;;;;;;4.05;3.75;;;;;;;26.90;49.05;95646.16;1834600;78;21063;-65
2022/06/12 12:13:59;;;;;;;4.22;3.80;;;;;;;27.61;46.17;95654.14;1833953;78;21004;-65
2022/06/12 12:16:41;;;;;;;4.28;3.50;;;;;;;28.07;47.28;95647.98;1835080;78;20960;-65
2022/06/12 12:19:28;;;;;;;4.45;3.83;;;;;;;28.62;44.87;95639.55;1835203;78;21016;-65
2022/06/12 12:22:38;;;;;;;4.90;3.70;;;;;;;28.87;43.58;95636.31;1835084;78;21067;-65
2022/06/12 12:25:25;;;;;;;3.58;3.27;;;;;;;28.59;42.85;95638.47;1834668;78;21047;-65
2022/06/12 12:27:56;;;;;;;3.75;3.33;;;;;;;28.64;43.20;95637.05;1835449;78;21003;-65
2022/06/12 12:30:27;;;;;;;3.92;3.37;;;;;;;29.37;41.56;95629.12;1835195;78;21016;-65
2022/06/12 12:32:59;;;;;;;3.65;3.35;;;;;;;29.97;43.14;95626.58;1835272;78;20979;-65
2022/06/12 12:41:12;;;;;;;3.85;3.40;;;;;;;31.44;37.23;95619.42;1835066;78;20992;-66